createdAt,value
2023-04-07T00:02:02.807Z,6.80
2023-04-07T00:04:30.333Z,6.90
2023-04-07T00:09:37.610Z,5.57
2023-04-07T00:12:11.791Z,8.38
2023-04-07T00:14:38.916Z,9.02
2023-04-07T00:17:06.076Z,6.72
2023-04-07T00:19:40.719Z,7.78
2023-04-07T00:22:07.856Z,7.85
2023-04-07T00:24:41.787Z,9.20
2023-04-07T00:27:09.034Z,10.02
2023-04-07T00:29:36.156Z,6.22
2023-04-07T00:32:09.713Z,7.63
2023-04-07T00:34:43.600Z,7.60
2023-04-07T00:37:17.692Z,7.80
2023-04-07T00:39:44.831Z,7.30
2023-04-07T00:42:25.693Z,9.63
2023-04-07T00:44:52.914Z,11.02
2023-04-07T00:47:20.739Z,8.23
2023-04-07T00:49:54.654Z,10.32
2023-04-07T00:52:28.685Z,8.65
2023-04-07T00:55:02.664Z,7.38
2023-04-07T00:57:29.975Z,7.88
2023-04-07T00:59:57.235Z,8.57
2023-04-07T01:02:37.979Z,10.25
2023-04-07T01:05:05.587Z,8.30
2023-04-07T01:08:02.647Z,14.20
2023-04-07T01:10:38.955Z,10.75
2023-04-07T01:13:47.749Z,13.52
2023-04-07T01:16:20.704Z,10.27
2023-04-07T01:18:55.668Z,13.57
2023-04-07T01:21:23.670Z,12.55
2023-04-07T01:24:15.697Z,12.82
2023-04-07T01:26:43.093Z,10.57
2023-04-07T01:29:38.731Z,11.50
2023-04-07T01:32:08.222Z,13.18
2023-04-07T01:34:42.831Z,10.30
2023-04-07T01:37:10.496Z,9.48
2023-04-07T01:39:38.566Z,12.30
2023-04-07T01:42:13.657Z,10.38
2023-04-07T01:44:41.422Z,14.65
2023-04-07T01:47:15.805Z,13.32
2023-04-07T01:49:44.598Z,11.25
2023-04-07T01:52:12.155Z,10.88
2023-04-07T01:54:46.653Z,9.40
2023-04-07T01:57:13.806Z,16.50
2023-04-07T01:59:47.737Z,14.95
2023-04-07T02:02:15.447Z,15.85
2023-04-07T02:05:09.738Z,13.68
2023-04-07T02:07:53.720Z,15.40
2023-04-07T02:10:28.669Z,12.57
2023-04-07T02:13:03.637Z,12.00
2023-04-07T02:15:41.693Z,15.40
2023-04-07T02:20:38.305Z,12.77
2023-04-07T02:23:12.668Z,9.57
2023-04-07T02:25:39.938Z,16.98
2023-04-07T02:28:13.729Z,14.65
2023-04-07T02:30:40.957Z,11.18
2023-04-07T02:33:08.113Z,11.18
2023-04-07T02:35:44.688Z,13.98
2023-04-07T02:38:11.903Z,21.90
2023-04-07T02:40:39.033Z,11.85
2023-04-07T02:43:12.696Z,16.05
2023-04-07T02:45:39.855Z,9.57
2023-04-07T02:48:13.792Z,11.73
2023-04-07T02:50:41.971Z,13.13
2023-04-07T02:53:09.272Z,14.00
2023-04-07T02:55:42.792Z,11.80
2023-04-07T02:58:09.917Z,15.85
2023-04-07T03:00:37.169Z,12.55
2023-04-07T03:03:10.783Z,16.27
2023-04-07T03:05:38.031Z,12.38
2023-04-07T03:08:24.698Z,12.90
2023-04-07T03:10:51.899Z,16.30
2023-04-07T03:13:19.758Z,13.77
2023-04-07T03:15:53.740Z,14.55
2023-04-07T03:18:20.956Z,24.70
2023-04-07T03:20:55.725Z,11.43
2023-04-07T03:23:24.028Z,12.13
2023-04-07T03:25:51.183Z,11.50
2023-04-07T03:28:24.683Z,12.98
2023-04-07T03:30:51.903Z,10.02
2023-04-07T03:33:25.856Z,10.95
2023-04-07T03:35:53.034Z,11.15
2023-04-07T03:38:21.518Z,12.68
2023-04-07T03:40:55.889Z,10.82
2023-04-07T03:43:23.113Z,9.52
2023-04-07T03:45:57.938Z,15.48
2023-04-07T03:48:26.484Z,10.60
2023-04-07T03:50:54.117Z,10.73
2023-04-07T03:53:27.680Z,11.25
2023-04-07T03:55:54.947Z,10.70
2023-04-07T03:58:28.766Z,12.77
2023-04-07T04:00:59.186Z,11.10
2023-04-07T04:03:26.477Z,11.50
2023-04-07T04:08:47.632Z,9.98
2023-04-07T04:11:14.805Z,10.00
2023-04-07T04:13:41.972Z,10.30
2023-04-07T04:16:15.732Z,11.43
2023-04-07T04:18:43.006Z,11.82
2023-04-07T04:21:16.783Z,11.38
2023-04-07T04:23:43.961Z,11.07
2023-04-07T04:26:11.091Z,13.15
2023-04-07T04:28:44.693Z,8.98
2023-04-07T04:31:11.882Z,12.73
2023-04-07T04:33:45.766Z,12.50
2023-04-07T04:36:13.350Z,12.93
2023-04-07T04:38:40.513Z,11.95
2023-04-07T04:41:13.692Z,12.32
2023-04-07T04:43:42.203Z,14.18
2023-04-07T04:46:15.906Z,9.43
2023-04-07T04:48:43.095Z,11.82
2023-04-07T04:51:10.249Z,9.10
2023-04-07T04:53:43.701Z,9.13
2023-04-07T04:56:11.237Z,10.63
2023-04-07T04:58:46.905Z,12.20
2023-04-07T05:01:14.236Z,9.23
2023-04-07T05:03:41.583Z,10.18
2023-04-07T05:06:15.715Z,11.95
2023-04-07T05:09:03.612Z,10.38
2023-04-07T05:11:37.778Z,9.98
2023-04-07T05:14:04.929Z,12.25
2023-04-07T05:16:32.037Z,10.75
2023-04-07T05:19:05.682Z,12.55
2023-04-07T05:21:32.835Z,11.68
2023-04-07T05:24:08.738Z,9.73
2023-04-07T05:26:36.541Z,12.60
2023-04-07T05:29:03.646Z,9.73
2023-04-07T05:31:37.815Z,9.90
2023-04-07T05:34:05.022Z,12.60
2023-04-07T05:36:38.847Z,9.18
2023-04-07T05:39:06.324Z,13.23
2023-04-07T05:44:06.742Z,7.57
2023-04-07T05:46:33.900Z,10.63
2023-04-07T05:51:40.695Z,8.80
2023-04-07T05:56:42.090Z,13.25
2023-04-07T05:59:09.252Z,8.70
2023-04-07T06:01:42.905Z,8.82
2023-04-07T06:04:10.408Z,8.70
2023-04-07T06:06:44.740Z,7.43
2023-04-07T06:09:18.610Z,8.55
2023-04-07T06:11:53.784Z,8.50
2023-04-07T06:14:27.813Z,7.97
2023-04-07T06:16:55.045Z,8.40
2023-04-07T06:19:22.169Z,7.70
2023-04-07T06:21:55.880Z,9.65
2023-04-07T06:24:25.191Z,10.07
2023-04-07T06:27:03.729Z,8.70
2023-04-07T06:29:31.538Z,11.68
2023-04-07T06:31:58.662Z,10.15
2023-04-07T06:34:32.860Z,9.40
2023-04-07T06:37:00.226Z,10.65
2023-04-07T06:39:27.864Z,9.07
2023-04-07T06:42:01.763Z,6.28
2023-04-07T06:44:28.926Z,10.05
2023-04-07T06:47:02.916Z,5.88
2023-04-07T06:49:30.119Z,7.43
2023-04-07T06:51:57.258Z,6.30
2023-04-07T06:54:30.774Z,7.60
2023-04-07T06:56:57.913Z,5.82
2023-04-07T06:59:31.908Z,9.27
2023-04-07T07:01:59.199Z,6.50
2023-04-07T07:07:02.784Z,5.15
2023-04-07T07:09:36.716Z,7.22
2023-04-07T07:12:16.746Z,6.88
2023-04-07T07:14:44.020Z,7.25
2023-04-07T07:17:11.129Z,5.03
2023-04-07T07:19:45.743Z,6.30
2023-04-07T07:22:12.908Z,4.68
2023-04-07T07:24:40.062Z,6.72
2023-04-07T07:27:13.717Z,5.55
2023-04-07T07:29:41.162Z,6.22
2023-04-07T07:32:14.762Z,6.18
2023-04-07T07:34:41.943Z,7.28
2023-04-07T07:37:09.193Z,8.13
2023-04-07T07:39:42.767Z,5.93
2023-04-07T07:42:09.936Z,6.63
2023-04-07T07:44:37.018Z,10.20
2023-04-07T07:47:10.728Z,9.27
2023-04-07T07:49:37.981Z,4.65
2023-04-07T07:52:11.889Z,6.95
2023-04-07T07:54:39.174Z,6.15
2023-04-07T07:57:06.547Z,8.00
2023-04-07T07:59:40.768Z,7.28
2023-04-07T08:02:08.754Z,6.03
2023-04-07T08:04:42.792Z,5.20
2023-04-07T08:07:11.524Z,14.55
2023-04-07T08:09:53.961Z,5.07
2023-04-07T08:12:21.348Z,6.00
2023-04-07T08:14:49.928Z,7.18
2023-04-07T08:17:23.927Z,6.55
2023-04-07T08:19:51.113Z,9.18
2023-04-07T08:22:27.873Z,6.90
2023-04-07T08:24:55.280Z,9.18
2023-04-07T08:27:22.441Z,6.40
2023-04-07T08:30:05.776Z,5.63
2023-04-07T08:32:36.682Z,9.00
2023-04-07T08:35:03.922Z,5.97
2023-04-07T08:37:38.829Z,7.55
2023-04-07T08:40:06.246Z,8.40
2023-04-07T08:42:40.710Z,5.53
2023-04-07T08:45:08.325Z,7.47
2023-04-07T08:47:42.838Z,5.15
2023-04-07T08:50:11.275Z,5.85
2023-04-07T08:52:51.931Z,6.45
2023-04-07T08:55:19.368Z,6.05
2023-04-07T08:57:46.992Z,8.18
2023-04-07T09:02:49.442Z,5.80
2023-04-07T09:05:23.917Z,5.88
2023-04-07T09:07:51.067Z,5.72
2023-04-07T09:10:37.923Z,4.70
2023-04-07T09:13:05.077Z,6.97
2023-04-07T09:15:32.662Z,5.57
2023-04-07T09:20:53.258Z,7.88
2023-04-07T09:23:43.936Z,5.88
2023-04-07T09:26:23.124Z,6.22
2023-04-07T09:28:58.720Z,2.92
2023-04-07T09:32:04.559Z,5.00
2023-04-07T09:34:42.759Z,5.05
2023-04-07T09:40:00.868Z,4.15
2023-04-07T09:42:32.303Z,4.25
2023-04-07T09:45:00.310Z,8.10
2023-04-07T09:47:37.797Z,9.48
2023-04-07T09:50:07.230Z,5.47
2023-04-07T09:52:57.877Z,3.03
2023-04-07T09:55:25.720Z,3.85
2023-04-07T09:57:53.227Z,6.00
2023-04-07T10:02:54.300Z,3.90
2023-04-07T10:07:55.519Z,4.68
2023-04-07T10:10:37.911Z,3.70
2023-04-07T10:13:06.187Z,8.27
2023-04-07T10:15:33.878Z,5.05
2023-04-07T10:18:07.862Z,2.88
2023-04-07T10:20:35.756Z,5.30
2023-04-07T10:23:05.975Z,7.47
2023-04-07T10:25:39.843Z,5.45
2023-04-07T10:28:15.676Z,5.07
2023-04-07T10:30:49.807Z,2.72
2023-04-07T10:33:24.686Z,4.95
2023-04-07T10:36:05.714Z,2.88
2023-04-07T10:38:39.831Z,3.28
2023-04-07T10:41:25.581Z,2.53
2023-04-07T10:43:59.817Z,3.15
2023-04-07T10:46:45.338Z,5.45
2023-04-07T10:49:19.955Z,6.00
2023-04-07T10:52:07.103Z,5.47
2023-04-07T10:54:40.724Z,4.93
2023-04-07T10:57:16.773Z,4.07
2023-04-07T11:00:25.670Z,4.80
2023-04-07T11:03:00.047Z,3.90
2023-04-07T11:05:33.706Z,3.70
2023-04-07T11:08:11.774Z,1.92
2023-04-07T11:10:52.790Z,2.53
2023-04-07T11:13:27.621Z,2.95
2023-04-07T11:16:01.905Z,2.33
2023-04-07T11:18:29.155Z,2.50
2023-04-07T11:21:11.755Z,2.60
2023-04-07T11:23:39.976Z,5.53
2023-04-07T11:26:11.490Z,5.85
2023-04-07T11:28:55.891Z,3.95
2023-04-07T11:31:24.401Z,3.85
2023-04-07T11:34:09.132Z,3.67
2023-04-07T11:36:39.247Z,2.22
2023-04-07T11:39:06.749Z,3.55
2023-04-07T11:41:40.776Z,4.00
2023-04-07T11:44:11.943Z,2.63
2023-04-07T11:47:01.940Z,3.35
2023-04-07T11:49:29.474Z,2.60
2023-04-07T11:52:09.950Z,2.15
2023-04-07T11:54:43.515Z,3.75
2023-04-07T11:57:18.763Z,2.55
2023-04-07T11:59:45.974Z,4.93
2023-04-07T12:02:21.058Z,2.35
2023-04-07T12:04:57.814Z,3.03
2023-04-07T12:07:31.823Z,6.97
2023-04-07T12:10:21.539Z,2.53
2023-04-07T12:12:59.296Z,2.28
2023-04-07T12:15:33.877Z,3.58
2023-04-07T12:18:01.285Z,2.08
2023-04-07T12:20:28.499Z,4.20
2023-04-07T12:23:02.897Z,3.67
2023-04-07T12:25:30.088Z,2.58
2023-04-07T12:28:03.921Z,4.38
2023-04-07T12:30:31.075Z,2.03
2023-04-07T12:32:58.232Z,4.38
2023-04-07T12:35:31.837Z,3.40
2023-04-07T12:37:59.143Z,3.22
2023-04-07T12:40:26.416Z,4.47
2023-04-07T12:42:59.856Z,3.10
2023-04-07T12:45:27.437Z,3.47
2023-04-07T12:50:29.272Z,3.35
2023-04-07T12:52:56.779Z,1.52
2023-04-07T12:55:30.900Z,2.95
2023-04-07T12:57:58.056Z,3.47
2023-04-07T13:00:31.965Z,2.97
2023-04-07T13:02:59.351Z,3.30
2023-04-07T13:08:01.046Z,3.00
2023-04-07T13:10:34.784Z,1.98
2023-04-07T13:13:08.950Z,3.53
2023-04-07T13:15:36.154Z,3.53
2023-04-07T13:18:03.719Z,4.13
2023-04-07T13:23:08.173Z,2.95
2023-04-07T13:25:37.540Z,3.88
2023-04-07T13:28:10.790Z,2.67
2023-04-07T13:30:38.172Z,2.55
2023-04-07T13:33:11.944Z,3.08
2023-04-07T13:35:39.380Z,4.25
2023-04-07T13:38:06.633Z,2.78
2023-04-07T13:40:39.920Z,4.20
2023-04-07T13:43:07.857Z,3.15
2023-04-07T13:45:35.933Z,6.78
2023-04-07T13:48:09.927Z,3.03
2023-04-07T13:50:37.675Z,3.95
2023-04-07T13:53:11.858Z,3.00
2023-04-07T13:55:39.528Z,4.25
2023-04-07T13:58:06.671Z,2.03
2023-04-07T14:00:42.934Z,2.38
2023-04-07T14:03:10.325Z,3.95
2023-04-07T14:08:10.921Z,3.55
2023-04-07T14:10:58.014Z,4.80
2023-04-07T14:13:25.246Z,4.53
2023-04-07T14:15:53.895Z,4.25
2023-04-07T14:18:27.825Z,3.13
2023-04-07T14:20:55.030Z,3.28
2023-04-07T14:23:36.594Z,2.38
2023-04-07T14:26:04.294Z,5.18
2023-04-07T14:28:37.972Z,2.28
2023-04-07T14:31:05.236Z,3.42
2023-04-07T14:33:32.336Z,3.45
2023-04-07T14:36:06.006Z,1.60
2023-04-07T14:38:35.235Z,2.95
2023-04-07T14:41:10.510Z,4.70
2023-04-07T14:43:38.416Z,3.97
2023-04-07T14:46:05.645Z,2.53
2023-04-07T14:48:39.834Z,2.78
2023-04-07T14:51:13.530Z,2.33
2023-04-07T14:53:49.124Z,2.50
2023-04-07T14:56:16.471Z,2.70
2023-04-07T14:58:43.552Z,3.83
2023-04-07T15:01:17.488Z,3.55
2023-04-07T15:03:45.021Z,5.93
2023-04-07T15:08:46.791Z,3.30
2023-04-07T15:11:27.959Z,4.18
2023-04-07T15:14:01.778Z,3.42
2023-04-07T15:16:35.940Z,4.50
2023-04-07T15:19:03.129Z,3.22
2023-04-07T15:21:37.855Z,4.57
2023-04-07T15:24:05.077Z,4.90
2023-04-07T15:26:32.190Z,5.63
2023-04-07T15:29:05.997Z,4.88
2023-04-07T15:31:33.266Z,4.75
2023-04-07T15:34:06.972Z,3.33
2023-04-07T15:36:34.216Z,3.40
2023-04-07T15:39:04.950Z,4.90
2023-04-07T15:41:38.958Z,3.83
2023-04-07T15:44:06.324Z,4.72
2023-04-07T15:46:40.015Z,4.10
2023-04-07T15:49:07.236Z,3.05
2023-04-07T15:51:34.477Z,2.17
2023-04-07T15:54:07.989Z,4.38
2023-04-07T15:56:35.240Z,3.05
2023-04-07T15:59:02.323Z,3.85
2023-04-07T16:01:37.141Z,2.47
2023-04-07T16:04:04.564Z,3.63
2023-04-07T16:06:38.894Z,2.67
2023-04-07T16:09:06.061Z,5.07
2023-04-07T16:11:46.840Z,4.20
2023-04-07T16:14:20.813Z,5.20
2023-04-07T16:16:48.078Z,3.55
2023-04-07T16:19:21.868Z,5.38
2023-04-07T16:21:55.950Z,6.38
2023-04-07T16:24:23.236Z,3.53
2023-04-07T16:26:57.995Z,2.88
2023-04-07T16:29:25.293Z,3.92
2023-04-07T16:31:52.449Z,4.60
2023-04-07T16:34:25.966Z,4.63
2023-04-07T16:36:53.199Z,3.35
2023-04-07T16:39:29.339Z,6.45
2023-04-07T16:41:56.926Z,7.30
2023-04-07T16:44:24.039Z,5.20
2023-04-07T16:47:00.796Z,3.38
2023-04-07T16:49:29.376Z,4.28
2023-04-07T16:51:57.554Z,2.67
2023-04-07T16:54:30.962Z,3.90
2023-04-07T16:56:58.206Z,3.92
2023-04-07T16:59:32.054Z,4.40
2023-04-07T17:01:59.321Z,5.05
2023-04-07T17:04:26.861Z,4.72
2023-04-07T17:09:28.128Z,2.92
2023-04-07T17:12:08.957Z,6.18
2023-04-07T17:14:36.356Z,4.03
2023-04-07T17:17:03.519Z,4.70
2023-04-07T17:19:36.892Z,4.50
2023-04-07T17:22:04.086Z,4.30
2023-04-07T17:24:37.979Z,2.53
2023-04-07T17:27:05.128Z,5.38
2023-04-07T17:29:33.584Z,3.38
2023-04-07T17:32:06.962Z,3.25
2023-04-07T17:34:34.272Z,3.30
2023-04-07T17:37:07.901Z,5.40
2023-04-07T17:39:35.045Z,4.03
2023-04-07T17:42:02.244Z,3.78
2023-04-07T17:44:38.103Z,4.47
2023-04-07T17:47:05.753Z,3.38
2023-04-07T17:49:32.880Z,3.25
2023-04-07T17:52:06.891Z,3.35
2023-04-07T17:54:34.649Z,3.85
2023-04-07T17:57:10.022Z,3.95
2023-04-07T17:59:37.264Z,5.03
2023-04-07T18:02:09.102Z,3.75
2023-04-07T18:04:47.116Z,2.88
2023-04-07T18:07:14.951Z,3.67
2023-04-07T18:09:56.054Z,4.70
2023-04-07T18:12:31.292Z,5.03
2023-04-07T18:15:04.904Z,3.40
2023-04-07T18:17:38.845Z,4.32
2023-04-07T18:20:06.524Z,3.75
2023-04-07T18:22:40.840Z,3.53
2023-04-07T18:25:09.606Z,3.38
2023-04-07T18:27:36.845Z,2.90
2023-04-07T18:30:11.035Z,2.38
2023-04-07T18:32:38.253Z,3.63
2023-04-07T18:35:06.597Z,3.80
2023-04-07T18:37:40.665Z,4.22
2023-04-07T18:40:09.222Z,3.60
2023-04-07T18:42:42.945Z,3.13
2023-04-07T18:45:10.319Z,4.50
2023-04-07T18:47:37.650Z,4.25
2023-04-07T18:50:12.046Z,3.20
2023-04-07T18:52:39.442Z,2.72
2023-04-07T18:55:06.979Z,2.58
2023-04-07T19:00:08.731Z,3.00
2023-04-07T19:02:43.069Z,2.45
2023-04-07T19:05:11.161Z,2.60
2023-04-07T19:07:44.926Z,3.03
2023-04-07T19:10:39.824Z,2.72
2023-04-07T19:13:13.953Z,2.70
2023-04-07T19:15:45.968Z,2.22
2023-04-07T19:18:13.225Z,1.98
2023-04-07T19:20:46.888Z,3.80
2023-04-07T19:23:14.419Z,2.30
2023-04-07T19:28:16.332Z,3.17
2023-04-07T19:30:43.435Z,4.28
2023-04-07T19:33:16.894Z,2.63
2023-04-07T19:35:44.185Z,3.30
2023-04-07T19:38:18.093Z,2.78
2023-04-07T19:40:45.366Z,3.60
2023-04-07T19:43:14.172Z,4.53
2023-04-07T19:45:48.109Z,2.40
2023-04-07T19:48:15.697Z,3.58
2023-04-07T19:53:25.178Z,2.95
2023-04-07T19:55:52.346Z,5.45
2023-04-07T19:58:21.919Z,7.40
2023-04-07T20:00:58.910Z,3.83
2023-04-07T20:03:26.115Z,6.13
2023-04-07T20:05:59.954Z,4.57
2023-04-07T20:08:27.069Z,4.35
2023-04-07T20:11:17.952Z,3.53
2023-04-07T20:13:45.531Z,4.50
2023-04-07T20:18:49.246Z,3.42
2023-04-07T20:21:16.489Z,4.18
2023-04-07T20:23:57.009Z,4.03
2023-04-07T20:26:24.137Z,5.53
2023-04-07T20:28:58.090Z,7.28
2023-04-07T20:31:25.499Z,5.55
2023-04-07T20:33:52.672Z,3.72
2023-04-07T20:36:25.927Z,5.05
2023-04-07T20:38:54.962Z,5.40
2023-04-07T20:41:32.083Z,3.15
2023-04-07T20:43:59.415Z,5.55
2023-04-07T20:46:26.885Z,4.97
2023-04-07T20:49:00.989Z,6.72
2023-04-07T20:51:29.005Z,4.57
2023-04-07T20:54:03.105Z,5.82
2023-04-07T20:56:30.279Z,3.05
2023-04-07T20:58:57.523Z,3.53
2023-04-07T21:01:31.142Z,4.35
2023-04-07T21:04:00.796Z,3.38
2023-04-07T21:06:28.021Z,3.63
2023-04-07T21:09:01.933Z,5.60
2023-04-07T21:11:36.010Z,3.75
2023-04-07T21:14:10.092Z,3.65
2023-04-07T21:16:37.322Z,5.13
2023-04-07T21:19:04.420Z,3.42
2023-04-07T21:21:37.939Z,4.53
2023-04-07T21:24:05.144Z,3.92
2023-04-07T21:26:39.167Z,3.40
2023-04-07T21:29:06.568Z,3.75
2023-04-07T21:31:33.954Z,6.93
2023-04-07T21:34:07.933Z,3.45
2023-04-07T21:36:35.225Z,2.92
2023-04-07T21:39:09.114Z,6.53
2023-04-07T21:41:37.148Z,5.85
2023-04-07T21:44:04.517Z,3.00
2023-04-07T21:46:40.104Z,3.70
2023-04-07T21:49:07.831Z,3.42
2023-04-07T21:51:41.983Z,3.40
2023-04-07T21:54:16.041Z,2.63
2023-04-07T21:56:49.943Z,7.32
2023-04-07T21:59:17.708Z,3.47
2023-04-07T22:02:00.789Z,3.67
2023-04-07T22:04:28.873Z,3.45
2023-04-07T22:06:56.607Z,2.40
2023-04-07T22:09:29.940Z,3.95
2023-04-07T22:12:03.901Z,4.55
2023-04-07T22:14:38.003Z,4.68
2023-04-07T22:17:05.241Z,3.30
2023-04-07T22:19:32.337Z,2.45
2023-04-07T22:22:05.968Z,2.30
2023-04-07T22:24:33.257Z,4.03
2023-04-07T22:27:07.989Z,2.83
2023-04-07T22:29:35.720Z,3.17
2023-04-07T22:32:02.832Z,2.55
2023-04-07T22:34:36.938Z,4.32
2023-04-07T22:37:04.074Z,2.80
2023-04-07T22:39:38.080Z,2.97
2023-04-07T22:42:05.752Z,3.75
2023-04-07T22:44:32.965Z,2.67
2023-04-07T22:47:06.968Z,2.97
2023-04-07T22:49:34.124Z,2.63
2023-04-07T22:52:08.116Z,3.90
2023-04-07T22:54:35.482Z,3.63
2023-04-07T22:57:03.050Z,2.92
2023-04-07T23:02:04.679Z,5.60
2023-04-07T23:04:31.831Z,2.65
2023-04-07T23:07:06.051Z,2.53
2023-04-07T23:09:33.209Z,5.22
2023-04-07T23:12:14.281Z,6.38
2023-04-07T23:14:41.438Z,2.60
2023-04-07T23:17:08.721Z,2.80
2023-04-07T23:19:42.009Z,2.88
2023-04-07T23:22:09.299Z,5.85
2023-04-07T23:24:36.416Z,5.45
2023-04-07T23:27:10.038Z,2.83
2023-04-07T23:29:37.289Z,2.72
2023-04-07T23:32:11.243Z,3.00
2023-04-07T23:34:38.574Z,2.85
2023-04-07T23:37:05.679Z,6.43
2023-04-07T23:39:41.190Z,3.97
2023-04-07T23:42:09.094Z,2.63
2023-04-07T23:44:36.461Z,2.90
2023-04-07T23:47:09.994Z,3.05
2023-04-07T23:49:37.522Z,1.92
2023-04-07T23:54:38.474Z,4.50
2023-04-07T23:57:05.564Z,3.40
2023-04-07T23:59:39.063Z,3.53
